createdAt,value
2022-11-13T00:07:02.863Z,50.87
2022-11-13T00:09:48.694Z,50.66
2022-11-13T00:12:34.472Z,50.14
2022-11-13T00:15:20.690Z,49.08
2022-11-13T00:18:06.129Z,47.44
2022-11-13T00:20:52.018Z,47.06
2022-11-13T00:23:37.990Z,48.12
2022-11-13T00:26:27.012Z,48.49
2022-11-13T00:29:13.220Z,48.37
2022-11-13T00:31:59.018Z,46.40
2022-11-13T00:34:48.550Z,46.15
2022-11-13T00:37:34.895Z,46.66
2022-11-13T00:40:22.122Z,46.95
2022-11-13T00:43:07.573Z,47.28
2022-11-13T00:45:53.693Z,45.88
2022-11-13T00:48:40.912Z,46.10
2022-11-13T00:51:26.628Z,46.86
2022-11-13T00:54:12.521Z,46.52
2022-11-13T00:56:59.766Z,46.26
2022-11-13T00:59:45.709Z,47.07
2022-11-13T01:02:31.667Z,50.36
2022-11-13T01:05:17.766Z,52.24
2022-11-13T01:08:03.959Z,53.08
2022-11-13T01:10:53.559Z,54.13
2022-11-13T01:13:44.415Z,54.77
2022-11-13T01:16:30.488Z,56.44
2022-11-13T01:19:16.033Z,55.65
2022-11-13T01:22:01.833Z,56.38
2022-11-13T01:24:47.625Z,54.80
2022-11-13T01:27:35.847Z,54.81
2022-11-13T01:30:21.709Z,55.58
2022-11-13T01:33:07.495Z,57.09
2022-11-13T01:35:53.158Z,58.12
2022-11-13T01:38:39.542Z,57.91
2022-11-13T01:41:27.065Z,58.24
2022-11-13T01:44:15.520Z,60.12
2022-11-13T01:47:01.204Z,63.60
2022-11-13T01:49:48.223Z,67.13
2022-11-13T01:52:37.436Z,67.17
2022-11-13T01:55:23.892Z,66.28
2022-11-13T01:58:11.626Z,67.62
2022-11-13T02:00:57.454Z,65.93
2022-11-13T02:03:43.450Z,69.30
2022-11-13T02:06:35.983Z,68.36
2022-11-13T02:09:26.759Z,68.90
2022-11-13T02:12:15.847Z,68.33
2022-11-13T02:15:05.136Z,67.30
2022-11-13T02:17:55.673Z,67.28
2022-11-13T02:21:16.345Z,66.90
2022-11-13T02:24:24.454Z,65.80
2022-11-13T02:27:17.969Z,66.43
2022-11-13T02:30:27.772Z,66.82
2022-11-13T02:33:28.843Z,67.87
2022-11-13T02:36:15.492Z,68.24
2022-11-13T02:39:06.438Z,67.44
2022-11-13T02:41:53.463Z,66.10
2022-11-13T02:44:40.849Z,66.19
2022-11-13T02:47:26.625Z,66.31
2022-11-13T02:50:13.527Z,65.84
2022-11-13T02:53:00.516Z,65.46
2022-11-13T02:55:46.541Z,64.54
2022-11-13T02:58:32.291Z,64.53
2022-11-13T03:01:18.302Z,64.72
2022-11-13T03:04:04.243Z,64.75
2022-11-13T03:06:50.047Z,64.28
2022-11-13T03:09:35.942Z,64.89
2022-11-13T03:12:21.834Z,63.95
2022-11-13T03:15:08.782Z,64.44
2022-11-13T03:17:54.927Z,65.01
2022-11-13T03:20:43.315Z,64.30
2022-11-13T03:23:28.934Z,63.73
2022-11-13T03:26:17.112Z,63.66
2022-11-13T03:29:03.224Z,63.73
2022-11-13T03:31:49.029Z,63.73
2022-11-13T03:34:35.011Z,64.03
2022-11-13T03:37:21.045Z,64.00
2022-11-13T03:40:07.439Z,63.93
2022-11-13T03:42:53.119Z,63.80
2022-11-13T03:45:39.361Z,63.05
2022-11-13T03:48:25.223Z,62.83
2022-11-13T03:51:11.237Z,62.21
2022-11-13T03:53:56.739Z,62.03
2022-11-13T03:56:42.558Z,59.73
2022-11-13T03:59:28.638Z,59.89
2022-11-13T04:02:14.367Z,52.63
2022-11-13T04:05:00.487Z,52.08
2022-11-13T04:07:46.275Z,50.15
2022-11-13T04:10:32.295Z,49.98
2022-11-13T04:13:18.012Z,48.82
2022-11-13T04:16:05.086Z,48.20
2022-11-13T04:18:50.825Z,48.13
2022-11-13T04:21:38.045Z,47.67
2022-11-13T04:24:24.000Z,46.49
2022-11-13T04:27:09.887Z,46.17
2022-11-13T04:29:56.890Z,46.16
2022-11-13T04:32:42.710Z,45.99
2022-11-13T04:35:29.783Z,45.60
2022-11-13T04:38:15.995Z,45.38
2022-11-13T04:41:20.106Z,45.88
2022-11-13T04:44:06.120Z,44.91
2022-11-13T04:46:51.852Z,45.18
2022-11-13T04:49:37.876Z,46.02
2022-11-13T04:52:23.754Z,45.00
2022-11-13T04:55:10.304Z,45.08
2022-11-13T04:57:56.233Z,44.60
2022-11-13T05:00:42.083Z,44.53
2022-11-13T05:03:27.987Z,44.43
2022-11-13T05:06:14.268Z,44.55
2022-11-13T05:08:59.880Z,44.43
2022-11-13T05:11:45.701Z,44.51
2022-11-13T05:14:31.635Z,44.35
2022-11-13T05:17:17.570Z,45.14
2022-11-13T05:20:03.992Z,45.15
2022-11-13T05:22:50.093Z,44.40
2022-11-13T05:25:39.255Z,44.47
2022-11-13T05:28:27.475Z,44.80
2022-11-13T05:31:15.715Z,44.53
2022-11-13T05:34:05.954Z,45.22
2022-11-13T05:36:52.241Z,44.74
2022-11-13T05:39:38.284Z,44.37
2022-11-13T05:42:24.374Z,44.68
2022-11-13T05:45:10.986Z,44.61
2022-11-13T05:47:58.000Z,45.03
2022-11-13T05:50:43.878Z,44.96
2022-11-13T05:53:29.532Z,44.99
2022-11-13T05:56:23.258Z,44.39
2022-11-13T05:59:08.957Z,44.44
2022-11-13T06:01:55.066Z,44.04
2022-11-13T06:04:40.906Z,43.48
2022-11-13T06:07:26.679Z,43.25
2022-11-13T06:10:13.467Z,43.21
2022-11-13T06:12:59.319Z,43.84
2022-11-13T06:15:45.222Z,43.68
2022-11-13T06:18:31.118Z,43.01
2022-11-13T06:21:20.886Z,43.09
2022-11-13T06:24:08.191Z,43.30
2022-11-13T06:26:55.961Z,42.73
2022-11-13T06:29:41.661Z,42.69
2022-11-13T06:32:27.341Z,42.61
2022-11-13T06:35:13.142Z,43.13
2022-11-13T06:37:58.913Z,43.08
2022-11-13T06:40:45.092Z,42.70
2022-11-13T06:43:32.057Z,42.53
2022-11-13T06:46:21.152Z,42.81
2022-11-13T06:49:06.870Z,42.93
2022-11-13T06:51:52.533Z,42.94
2022-11-13T06:54:38.449Z,43.37
2022-11-13T06:57:24.235Z,43.35
2022-11-13T07:00:12.368Z,43.56
2022-11-13T07:02:58.143Z,42.84
2022-11-13T07:05:44.251Z,42.61
2022-11-13T07:08:30.142Z,42.23
2022-11-13T07:11:21.531Z,42.61
2022-11-13T07:14:07.581Z,42.41
2022-11-13T07:17:10.407Z,42.92
2022-11-13T07:20:00.092Z,42.97
2022-11-13T07:22:47.028Z,43.04
2022-11-13T07:25:35.217Z,43.28
2022-11-13T07:28:20.761Z,42.85
2022-11-13T07:31:07.624Z,42.66
2022-11-13T07:33:53.675Z,42.51
2022-11-13T07:36:39.308Z,42.58
2022-11-13T07:39:25.360Z,42.53
2022-11-13T07:42:11.552Z,42.07
2022-11-13T07:44:57.807Z,41.93
2022-11-13T07:47:44.226Z,41.85
2022-11-13T07:50:33.600Z,42.17
2022-11-13T07:53:20.961Z,42.51
2022-11-13T07:56:07.499Z,43.02
2022-11-13T07:58:53.518Z,42.27
2022-11-13T08:01:39.371Z,42.85
2022-11-13T08:04:25.178Z,42.60
2022-11-13T08:07:13.368Z,43.02
2022-11-13T08:09:59.495Z,42.72
2022-11-13T08:12:45.670Z,42.68
2022-11-13T08:15:32.098Z,43.22
2022-11-13T08:18:17.955Z,42.61
2022-11-13T08:21:08.095Z,42.42
2022-11-13T08:23:57.774Z,43.00
2022-11-13T08:26:43.540Z,42.18
2022-11-13T08:29:29.702Z,42.49
2022-11-13T08:32:15.784Z,42.69
2022-11-13T08:35:01.613Z,42.53
2022-11-13T08:37:47.538Z,42.85
2022-11-13T08:40:33.741Z,42.01
2022-11-13T08:43:19.775Z,42.94
2022-11-13T08:46:06.238Z,42.89
2022-11-13T08:48:52.270Z,42.46
2022-11-13T08:51:37.959Z,42.99
2022-11-13T08:54:24.744Z,43.08
2022-11-13T08:57:10.735Z,43.26
2022-11-13T08:59:56.559Z,43.13
2022-11-13T09:02:42.283Z,43.16
2022-11-13T09:05:28.803Z,42.69
2022-11-13T09:08:14.681Z,42.82
2022-11-13T09:11:05.904Z,42.99
2022-11-13T09:13:53.499Z,43.02
2022-11-13T09:16:39.711Z,42.56
2022-11-13T09:19:27.469Z,42.36
2022-11-13T09:22:13.470Z,42.53
2022-11-13T09:24:59.544Z,42.69
2022-11-13T09:27:52.948Z,42.03
2022-11-13T09:30:40.775Z,41.31
2022-11-13T09:33:27.336Z,41.38
2022-11-13T09:36:15.017Z,41.39
2022-11-13T09:39:03.646Z,41.75
2022-11-13T09:42:01.428Z,42.15
2022-11-13T09:44:52.634Z,42.22
2022-11-13T09:47:43.726Z,42.50
2022-11-13T09:50:32.799Z,42.62
2022-11-13T09:53:19.223Z,42.73
2022-11-13T09:56:28.317Z,43.22
2022-11-13T09:59:38.017Z,43.06
2022-11-13T10:02:30.579Z,42.93
2022-11-13T10:05:48.578Z,42.72
2022-11-13T10:08:57.632Z,42.09
2022-11-13T10:11:51.302Z,41.95
2022-11-13T10:14:46.168Z,41.22
2022-11-13T10:17:46.730Z,41.98
2022-11-13T10:20:49.440Z,45.86
2022-11-13T10:23:38.195Z,47.54
2022-11-13T10:26:27.863Z,49.76
2022-11-13T10:29:16.682Z,50.12
2022-11-13T10:32:23.266Z,51.07
2022-11-13T10:35:12.405Z,51.49
2022-11-13T10:38:08.810Z,52.37
2022-11-13T10:41:11.453Z,53.31
2022-11-13T10:44:20.498Z,56.19
2022-11-13T10:47:36.053Z,57.47
2022-11-13T10:50:29.525Z,58.16
2022-11-13T10:53:18.541Z,58.63
2022-11-13T10:56:23.954Z,59.19
2022-11-13T10:59:18.653Z,60.81
2022-11-13T11:02:20.984Z,61.42
2022-11-13T11:05:18.562Z,61.83
2022-11-13T11:08:10.499Z,62.44
2022-11-13T11:11:33.637Z,62.31
2022-11-13T11:14:31.327Z,62.43
2022-11-13T11:17:18.921Z,62.53
2022-11-13T11:20:40.355Z,62.71
2022-11-13T11:23:38.125Z,62.50
2022-11-13T11:26:30.073Z,62.26
2022-11-13T11:29:25.519Z,62.50
2022-11-13T11:32:25.792Z,62.43
2022-11-13T11:35:18.134Z,63.13
2022-11-13T11:38:18.768Z,63.88
2022-11-13T11:41:16.487Z,64.96
2022-11-13T11:44:38.742Z,64.76
2022-11-13T11:47:25.066Z,64.70
2022-11-13T11:50:16.299Z,64.49
2022-11-13T11:53:05.688Z,64.89
2022-11-13T11:56:15.901Z,64.71
2022-11-13T11:59:10.585Z,65.63
2022-11-13T12:02:11.242Z,66.35
2022-11-13T12:05:16.984Z,66.21
2022-11-13T12:08:11.664Z,65.39
2022-11-13T12:11:31.452Z,65.29
2022-11-13T12:14:42.657Z,64.42
2022-11-13T12:17:28.284Z,64.65
2022-11-13T12:20:52.607Z,64.43
2022-11-13T12:23:47.448Z,64.47
2022-11-13T12:26:41.713Z,64.76
2022-11-13T12:29:48.251Z,64.66
2022-11-13T12:32:51.361Z,64.52
2022-11-13T12:35:38.613Z,63.77
2022-11-13T12:38:44.642Z,63.94
2022-11-13T12:41:46.761Z,63.49
2022-11-13T12:44:47.482Z,63.90
2022-11-13T12:47:35.953Z,64.78
2022-11-13T12:50:32.568Z,65.61
2022-11-13T12:53:29.611Z,66.04
2022-11-13T12:56:26.624Z,66.12
2022-11-13T12:59:30.732Z,65.27
2022-11-13T13:02:35.345Z,65.40
2022-11-13T13:05:30.905Z,64.79
2022-11-13T13:08:40.464Z,63.98
2022-11-13T13:11:33.002Z,63.29
2022-11-13T13:14:21.630Z,63.75
2022-11-13T13:17:17.759Z,64.21
2022-11-13T13:20:05.766Z,64.39
2022-11-13T13:23:00.476Z,63.98
2022-11-13T13:25:46.282Z,64.34
2022-11-13T13:28:33.362Z,64.46
2022-11-13T13:31:45.473Z,64.56
2022-11-13T13:34:51.313Z,64.48
2022-11-13T13:38:11.191Z,63.16
2022-11-13T13:41:16.156Z,63.71
2022-11-13T13:44:26.816Z,63.86
2022-11-13T13:47:29.207Z,63.95
2022-11-13T13:50:19.451Z,63.73
2022-11-13T13:53:06.011Z,63.96
2022-11-13T13:55:55.915Z,64.84
2022-11-13T13:58:42.708Z,65.28
2022-11-13T14:01:35.496Z,65.22
2022-11-13T14:04:23.545Z,65.53
2022-11-13T14:07:47.493Z,66.43
2022-11-13T14:10:36.448Z,66.67
2022-11-13T14:13:27.892Z,67.43
2022-11-13T14:16:14.375Z,67.27
2022-11-13T14:19:05.064Z,67.19
2022-11-13T14:21:54.648Z,67.37
2022-11-13T14:24:45.654Z,67.33
2022-11-13T14:27:32.503Z,67.07
2022-11-13T14:30:36.658Z,66.90
2022-11-13T14:33:25.758Z,66.55
2022-11-13T14:36:14.885Z,66.50
2022-11-13T14:39:02.208Z,66.23
2022-11-13T14:41:54.502Z,67.38
2022-11-13T14:44:40.340Z,67.43
2022-11-13T14:47:29.651Z,67.03
2022-11-13T14:50:21.662Z,67.02
2022-11-13T14:53:10.399Z,67.95
2022-11-13T14:55:59.228Z,68.46
2022-11-13T14:58:49.448Z,69.02
2022-11-13T15:01:35.298Z,69.13
2022-11-13T15:04:21.596Z,69.08
2022-11-13T15:07:45.809Z,69.41
2022-11-13T15:10:32.216Z,69.38
2022-11-13T15:13:20.073Z,69.76
2022-11-13T15:16:06.712Z,69.80
2022-11-13T15:19:05.378Z,69.49
2022-11-13T15:22:25.240Z,69.10
2022-11-13T15:24:58.352Z,69.38
2022-11-13T15:27:44.683Z,69.76
2022-11-13T15:30:30.201Z,70.18
2022-11-13T15:33:16.674Z,70.66
2022-11-13T15:36:02.096Z,71.41
2022-11-13T15:38:48.033Z,71.49
2022-11-13T15:41:34.411Z,72.03
2022-11-13T15:44:20.101Z,73.77
2022-11-13T15:47:26.060Z,74.99
2022-11-13T15:50:16.531Z,75.10
2022-11-13T15:53:06.433Z,75.16
2022-11-13T15:55:53.571Z,75.44
2022-11-13T15:58:42.017Z,75.65
2022-11-13T16:01:28.136Z,76.05
2022-11-13T16:04:16.466Z,76.18
2022-11-13T16:07:02.331Z,76.74
2022-11-13T16:09:48.315Z,77.12
2022-11-13T16:12:34.308Z,77.45
2022-11-13T16:15:20.266Z,77.20
2022-11-13T16:18:09.135Z,77.38
2022-11-13T16:20:55.101Z,77.40
2022-11-13T16:23:40.919Z,76.88
2022-11-13T16:26:27.878Z,77.01
2022-11-13T16:29:20.773Z,76.63
2022-11-13T16:32:06.939Z,76.74
2022-11-13T16:34:52.316Z,76.71
2022-11-13T16:37:40.917Z,77.55
2022-11-13T16:40:27.039Z,77.74
2022-11-13T16:43:13.600Z,77.89
2022-11-13T16:46:01.488Z,78.41
2022-11-13T16:48:48.354Z,78.75
2022-11-13T16:51:34.477Z,79.03
2022-11-13T16:54:20.128Z,79.43
2022-11-13T16:57:05.783Z,79.77
2022-11-13T16:59:51.310Z,79.31
2022-11-13T17:02:37.390Z,79.04
2022-11-13T17:05:25.620Z,78.91
2022-11-13T17:08:12.967Z,79.01
2022-11-13T17:10:59.025Z,79.41
2022-11-13T17:13:49.196Z,79.93
2022-11-13T17:16:34.651Z,79.97
2022-11-13T17:19:20.523Z,79.91
2022-11-13T17:22:06.622Z,80.56
2022-11-13T17:24:52.086Z,80.76
2022-11-13T17:27:37.653Z,81.10
2022-11-13T17:30:23.614Z,81.33
2022-11-13T17:33:09.467Z,81.10
2022-11-13T17:35:56.048Z,81.08
2022-11-13T17:38:43.280Z,81.69
2022-11-13T17:41:36.596Z,82.10
2022-11-13T17:44:22.641Z,83.29
2022-11-13T17:47:08.523Z,82.87
2022-11-13T17:49:54.802Z,83.25
2022-11-13T17:52:41.035Z,83.80
2022-11-13T17:55:26.886Z,84.23
2022-11-13T17:58:12.494Z,84.00
2022-11-13T18:01:05.703Z,84.33
2022-11-13T18:03:56.525Z,83.52
2022-11-13T18:06:42.326Z,83.31
2022-11-13T18:09:28.195Z,82.73
2022-11-13T18:12:14.279Z,82.43
2022-11-13T18:14:59.963Z,82.66
2022-11-13T18:17:45.497Z,82.56
2022-11-13T18:20:31.513Z,82.61
2022-11-13T18:23:20.679Z,82.73
2022-11-13T18:26:11.363Z,82.66
2022-11-13T18:28:57.367Z,83.02
2022-11-13T18:31:43.388Z,82.85
2022-11-13T18:34:29.154Z,82.76
2022-11-13T18:37:14.897Z,82.66
2022-11-13T18:40:01.916Z,81.93
2022-11-13T18:42:48.676Z,81.67
2022-11-13T18:45:34.368Z,81.62
2022-11-13T18:48:20.031Z,81.56
2022-11-13T18:51:06.943Z,81.61
2022-11-13T18:53:53.229Z,82.44
2022-11-13T18:56:40.917Z,82.57
2022-11-13T18:59:26.334Z,82.17
2022-11-13T19:02:14.114Z,82.33
2022-11-13T19:05:01.662Z,82.37
2022-11-13T19:07:48.345Z,82.93
2022-11-13T19:10:34.348Z,83.41
2022-11-13T19:13:20.031Z,83.59
2022-11-13T19:16:10.852Z,84.19
2022-11-13T19:18:57.582Z,84.20
2022-11-13T19:21:44.369Z,84.21
2022-11-13T19:24:31.250Z,84.23
2022-11-13T19:27:20.184Z,84.26
2022-11-13T19:30:07.117Z,84.23
2022-11-13T19:32:52.936Z,83.78
2022-11-13T19:35:38.525Z,83.83
2022-11-13T19:38:24.896Z,83.48
2022-11-13T19:41:11.936Z,82.68
2022-11-13T19:43:58.271Z,83.08
2022-11-13T19:46:45.363Z,82.75
2022-11-13T19:49:31.175Z,83.06
2022-11-13T19:52:16.894Z,83.12
2022-11-13T19:55:03.334Z,83.41
2022-11-13T19:57:50.363Z,84.11
2022-11-13T20:00:36.481Z,84.35
2022-11-13T20:03:23.039Z,84.60
2022-11-13T20:06:10.395Z,84.88
2022-11-13T20:08:55.932Z,84.82
2022-11-13T20:11:41.749Z,85.00
2022-11-13T20:14:27.858Z,84.80
2022-11-13T20:17:14.552Z,85.09
2022-11-13T20:20:01.124Z,84.58
2022-11-13T20:22:47.043Z,85.09
2022-11-13T20:25:32.489Z,85.86
2022-11-13T20:28:18.314Z,85.58
2022-11-13T20:31:21.846Z,84.72
2022-11-13T20:34:07.505Z,84.50
2022-11-13T20:36:53.625Z,84.68
2022-11-13T20:39:42.044Z,85.32
2022-11-13T20:42:28.080Z,85.06
2022-11-13T20:45:13.842Z,84.62
2022-11-13T20:47:59.244Z,84.00
2022-11-13T20:50:45.211Z,82.85
2022-11-13T20:53:30.971Z,83.12
2022-11-13T20:56:16.755Z,83.03
2022-11-13T20:59:04.283Z,82.59
2022-11-13T21:01:49.946Z,82.71
2022-11-13T21:04:35.991Z,83.72
2022-11-13T21:07:21.926Z,83.28
2022-11-13T21:10:08.010Z,83.54
2022-11-13T21:12:54.751Z,83.26
2022-11-13T21:15:40.532Z,83.42
2022-11-13T21:18:29.005Z,83.18
2022-11-13T21:21:19.514Z,82.86
2022-11-13T21:24:05.434Z,82.58
2022-11-13T21:26:52.016Z,82.65
2022-11-13T21:29:37.662Z,84.16
2022-11-13T21:32:23.539Z,82.96
2022-11-13T21:35:09.472Z,82.85
2022-11-13T21:37:55.126Z,82.93
2022-11-13T21:40:42.256Z,82.73
2022-11-13T21:43:27.998Z,82.66
2022-11-13T21:46:14.715Z,82.89
2022-11-13T21:49:02.649Z,83.29
2022-11-13T21:51:48.329Z,83.55
2022-11-13T21:54:34.053Z,83.58
2022-11-13T21:57:22.972Z,83.08
2022-11-13T22:00:09.060Z,82.80
2022-11-13T22:02:54.512Z,82.58
2022-11-13T22:05:40.304Z,82.83
2022-11-13T22:08:26.045Z,82.42
2022-11-13T22:11:12.486Z,82.21
2022-11-13T22:13:58.403Z,82.56
2022-11-13T22:16:45.021Z,82.30
2022-11-13T22:19:35.634Z,81.31
2022-11-13T22:22:21.798Z,80.49
2022-11-13T22:25:07.642Z,81.09
2022-11-13T22:27:53.466Z,81.14
2022-11-13T22:30:39.253Z,80.55
2022-11-13T22:33:28.833Z,79.47
2022-11-13T22:36:15.832Z,79.56
2022-11-13T22:39:02.093Z,80.00
2022-11-13T22:41:47.466Z,80.17
2022-11-13T22:44:54.425Z,80.46
2022-11-13T22:47:38.719Z,81.16
2022-11-13T22:50:24.417Z,80.06
2022-11-13T22:53:14.710Z,80.39
2022-11-13T22:56:01.210Z,80.09
2022-11-13T22:58:47.152Z,80.37
2022-11-13T23:01:34.082Z,79.41
2022-11-13T23:04:19.795Z,79.14
2022-11-13T23:07:05.772Z,78.71
2022-11-13T23:09:51.491Z,79.46
2022-11-13T23:12:38.391Z,79.49
2022-11-13T23:15:25.227Z,79.90
2022-11-13T23:18:11.016Z,79.84
2022-11-13T23:20:57.123Z,81.35
2022-11-13T23:23:43.248Z,82.57
2022-11-13T23:26:28.766Z,84.61
2022-11-13T23:29:14.816Z,85.22
2022-11-13T23:32:00.897Z,86.23
2022-11-13T23:34:59.240Z,87.19
2022-11-13T23:37:45.566Z,88.48
2022-11-13T23:40:31.209Z,87.86
2022-11-13T23:43:16.922Z,88.26
2022-11-13T23:46:02.526Z,88.42
2022-11-13T23:48:48.103Z,88.81
2022-11-13T23:51:33.609Z,89.47
2022-11-13T23:54:19.506Z,91.04
2022-11-13T23:57:05.513Z,89.77
2022-11-13T23:59:51.139Z,87.98
